Time;durP1;ratioP1;P1;durP2;ratioP2;P2;SDS_P1;SDS_P2;PMS_P1;PMS_P2;Temp;Humidity;BMP_temperature;BMP_pressure;BME280_temperature;BME280_humidity;BME280_pressure;Samples;Min_cycle;Max_cycle;Signal;HPM_P1;HPM_P2
2021/12/22 00:01:35;;;;;;;35.53;16.52;;;-5.90;88.00;;;;;;5078908;28;20041;-78
2021/12/22 00:04:02;;;;;;;31.15;16.75;;;-5.90;88.00;;;;;;5076361;28;20063;-78
2021/12/22 00:06:32;;;;;;;43.85;18.17;;;-5.90;88.10;;;;;;5074679;28;20135;-79
2021/12/22 00:09:00;;;;;;;42.72;20.55;;;-5.90;88.30;;;;;;5075728;28;20144;-78
2021/12/22 00:11:27;;;;;;;38.60;20.05;;;-5.90;88.20;;;;;;5059059;28;20047;-78
2021/12/22 00:13:53;;;;;;;38.35;19.05;;;-5.90;88.30;;;;;;5075007;28;20052;-78
2021/12/22 00:16:20;;;;;;;41.53;20.13;;;-6.00;88.40;;;;;;5073433;28;20049;-79
2021/12/22 00:18:47;;;;;;;39.22;18.20;;;-6.00;88.50;;;;;;5075634;28;20055;-78
2021/12/22 00:21:14;;;;;;;35.80;16.55;;;-6.00;88.50;;;;;;5074625;28;20403;-79
2021/12/22 00:23:41;;;;;;;38.08;16.98;;;-6.00;88.40;;;;;;5073759;28;20078;-78
2021/12/22 00:26:08;;;;;;;34.00;16.33;;;-6.00;88.70;;;;;;5076433;28;20558;-78
2021/12/22 00:28:36;;;;;;;34.50;16.85;;;-6.10;88.60;;;;;;5057800;28;20049;-79
2021/12/22 00:31:10;;;;;;;31.27;15.93;;;-6.10;88.60;;;;;;5074838;28;20083;-78
2021/12/22 00:33:45;;;;;;;47.53;18.33;;;-6.10;88.30;;;;;;5057181;28;20136;-78
2021/12/22 00:36:13;;;;;;;35.38;18.92;;;-6.10;88.30;;;;;;5077252;28;20053;-78
2021/12/22 00:38:40;;;;;;;46.45;19.65;;;-6.10;88.40;;;;;;5058755;28;20140;-79
2021/12/22 00:41:07;;;;;;;39.33;20.38;;;-6.10;88.40;;;;;;5076131;28;20431;-79
2021/12/22 00:43:34;;;;;;;39.42;19.63;;;-6.20;88.40;;;;;;5056202;28;20060;-78
2021/12/22 00:46:01;;;;;;;48.58;20.05;;;-6.20;88.20;;;;;;5073234;28;20479;-79
2021/12/22 00:48:28;;;;;;;36.33;18.85;;;-6.20;88.40;;;;;;5073863;28;20045;-78
2021/12/22 00:50:55;;;;;;;42.78;20.20;;;-6.30;88.40;;;;;;5075129;28;20508;-79
2021/12/22 00:53:21;;;;;;;40.53;19.05;;;-6.30;88.40;;;;;;5076297;28;20487;-79
2021/12/22 00:55:48;;;;;;;45.15;19.58;;;-6.30;88.30;;;;;;5075514;28;20061;-78
2021/12/22 00:58:33;;;;;;;37.60;18.23;;;-6.30;88.40;;;;;;5059905;28;20049;-78
2021/12/22 01:01:17;;;;;;;34.90;17.75;;;-6.30;88.40;;;;;;5052054;28;20063;-79
2021/12/22 01:03:52;;;;;;;43.25;19.05;;;-6.30;88.50;;;;;;5059698;28;20049;-80
2021/12/22 01:06:39;;;;;;;38.13;17.75;;;-6.30;88.60;;;;;;5073754;28;20111;-79
2021/12/22 01:09:13;;;;;;;36.63;19.08;;;-6.30;88.30;;;;;;5077352;28;20605;-79
2021/12/22 01:11:51;;;;;;;39.22;18.85;;;-6.30;88.40;;;;;;5071762;28;20045;-79
2021/12/22 01:14:20;;;;;;;32.17;17.45;;;-6.30;88.50;;;;;;5058275;28;20125;-78
2021/12/22 01:17:00;;;;;;;38.30;17.70;;;-6.40;88.40;;;;;;5077542;28;20085;-78
2021/12/22 01:23:02;;;;;;;41.05;17.80;;;-6.30;88.10;;;;;;5078864;28;20106;-79
2021/12/22 01:26:06;;;;;;;34.00;16.38;;;-6.40;88.20;;;;;;5045173;28;20045;-79
2021/12/22 01:28:59;;;;;;;39.60;17.95;;;-6.40;88.50;;;;;;5075570;28;20184;-78
2021/12/22 01:31:26;;;;;;;33.75;15.65;;;-6.40;88.70;;;;;;5062330;28;20099;-80
2021/12/22 01:33:53;;;;;;;31.85;16.13;;;-6.40;88.60;;;;;;5073411;28;20548;-79
2021/12/22 01:36:20;;;;;;;30.75;16.23;;;-6.40;88.60;;;;;;5071145;28;20051;-79
2021/12/22 01:38:48;;;;;;;33.45;15.38;;;-6.40;88.70;;;;;;5074815;28;20071;-79
2021/12/22 01:41:15;;;;;;;36.38;15.70;;;-6.50;88.60;;;;;;5074128;28;20103;-79
2021/12/22 01:43:41;;;;;;;32.42;14.98;;;-6.50;88.70;;;;;;5074907;28;20051;-79
2021/12/22 01:49:09;;;;;;;28.38;14.70;;;-6.50;88.60;;;;;;5074318;28;20079;-79
2021/12/22 01:49:15;;;;;;;26.00;14.23;;;-6.50;88.50;;;;;;5071499;28;20081;-79
2021/12/22 01:51:51;;;;;;;28.50;14.40;;;-6.50;88.40;;;;;;5073962;28;20072;-79
2021/12/22 01:54:27;;;;;;;29.60;14.00;;;-6.50;88.60;;;;;;5073662;28;20505;-79
2021/12/22 01:57:00;;;;;;;27.85;13.55;;;-6.50;88.50;;;;;;5072111;28;20049;-79
2021/12/22 01:59:29;;;;;;;31.05;13.85;;;-6.60;88.30;;;;;;5074242;28;20052;-79
2021/12/22 02:01:59;;;;;;;33.53;14.13;;;-6.60;88.30;;;;;;5073679;28;20128;-79
2021/12/22 02:04:26;;;;;;;28.92;14.48;;;-6.60;88.30;;;;;;5075014;28;20560;-79
2021/12/22 02:06:53;;;;;;;27.85;13.80;;;-6.60;88.20;;;;;;5075589;28;20049;-79
2021/12/22 02:09:41;;;;;;;29.20;14.77;;;-6.60;88.20;;;;;;5072308;28;20049;-79
2021/12/22 02:12:11;;;;;;;28.58;13.50;;;-6.60;88.20;;;;;;5056827;28;20025;-79
2021/12/22 02:14:40;;;;;;;28.20;12.98;;;-6.60;88.10;;;;;;5055743;28;20060;-79
2021/12/22 02:17:09;;;;;;;29.08;14.27;;;-6.60;88.20;;;;;;5074051;28;20081;-79
2021/12/22 02:19:43;;;;;;;31.90;14.52;;;-6.70;88.20;;;;;;5075084;28;20088;-79
2021/12/22 02:22:14;;;;;;;35.15;14.48;;;-6.70;88.20;;;;;;5072426;28;20060;-79
2021/12/22 02:24:58;;;;;;;29.40;14.50;;;-6.70;88.40;;;;;;5074852;28;20048;-79
2021/12/22 02:30:27;;;;;;;28.50;13.85;;;-6.80;88.40;;;;;;5051993;28;19927;-79
2021/12/22 02:35:39;;;;;;;32.33;15.38;;;-6.80;88.30;;;;;;5072731;28;20049;-79
2021/12/22 02:38:13;;;;;;;31.45;15.02;;;-6.80;88.20;;;;;;5071627;28;20546;-79
2021/12/22 02:40:42;;;;;;;28.95;15.32;;;-6.80;88.20;;;;;;5060615;28;20057;-79
2021/12/22 02:43:09;;;;;;;33.38;15.23;;;-6.80;88.20;;;;;;5076411;28;20071;-79
2021/12/22 02:45:37;;;;;;;28.75;14.48;;;-6.80;88.10;;;;;;5077783;28;20044;-79
2021/12/22 02:48:05;;;;;;;35.13;16.55;;;-6.80;88.30;;;;;;5075074;28;20139;-79
2021/12/22 02:50:36;;;;;;;30.85;14.52;;;-6.80;88.30;;;;;;5076640;28;20516;-79
2021/12/22 02:53:10;;;;;;;31.60;15.38;;;-6.90;88.30;;;;;;5078261;28;20502;-79
2021/12/22 02:56:29;;;;;;;29.25;15.60;;;-6.90;88.30;;;;;;5076165;28;20145;-79
2021/12/22 03:01:12;;;;;;;36.00;16.02;;;-6.90;88.20;;;;;;5077368;28;20063;-79
2021/12/22 03:06:36;;;;;;;35.58;15.52;;;-6.90;88.10;;;;;;5075373;28;20144;-79
2021/12/22 03:09:18;;;;;;;27.48;14.93;;;-6.90;88.10;;;;;;5073387;28;20063;-79
2021/12/22 03:11:45;;;;;;;31.88;15.50;;;-6.90;88.30;;;;;;5075158;28;20993;-79
2021/12/22 03:14:13;;;;;;;40.13;16.10;;;-6.90;88.30;;;;;;5077307;28;20055;-79
2021/12/22 03:16:42;;;;;;;29.52;15.85;;;-6.90;88.30;;;;;;5073882;28;20160;-79
2021/12/22 03:19:11;;;;;;;30.48;15.80;;;-6.90;88.30;;;;;;5074552;28;20091;-79
2021/12/22 03:21:40;;;;;;;28.52;14.85;;;-6.90;88.10;;;;;;5075523;28;20049;-79
2021/12/22 03:24:08;;;;;;;33.38;16.23;;;-7.00;88.10;;;;;;5075483;28;20049;-79
2021/12/22 03:26:41;;;;;;;31.63;15.35;;;-7.00;88.10;;;;;;5075628;28;20057;-79
2021/12/22 03:29:09;;;;;;;31.90;15.25;;;-7.00;88.10;;;;;;5076417;28;20059;-79
2021/12/22 03:31:36;;;;;;;34.60;16.55;;;-7.00;88.20;;;;;;5075153;28;20052;-79
2021/12/22 03:34:04;;;;;;;32.42;14.48;;;-7.00;88.10;;;;;;5059103;28;20187;-79
2021/12/22 03:36:32;;;;;;;30.67;16.05;;;-7.00;88.20;;;;;;5074539;28;20045;-79
2021/12/22 03:38:59;;;;;;;29.27;13.95;;;-7.00;88.20;;;;;;5077286;28;20049;-79
2021/12/22 03:41:26;;;;;;;31.92;14.60;;;-7.00;88.20;;;;;;5075179;28;20562;-79
2021/12/22 03:43:52;;;;;;;32.92;15.63;;;-7.00;88.20;;;;;;5075248;28;20811;-79
2021/12/22 03:46:19;;;;;;;31.23;15.40;;;-7.00;88.20;;;;;;5077621;28;20049;-79
2021/12/22 03:48:46;;;;;;;32.25;15.15;;;-7.00;88.30;;;;;;5076723;28;20418;-79
2021/12/22 03:51:13;;;;;;;30.55;15.45;;;-7.00;88.40;;;;;;5074129;28;20049;-79
2021/12/22 03:53:39;;;;;;;29.52;14.50;;;-7.00;88.50;;;;;;5057881;28;20059;-79
2021/12/22 03:56:06;;;;;;;29.50;14.73;;;-7.10;88.40;;;;;;5075281;28;20049;-79
2021/12/22 03:58:32;;;;;;;32.65;15.43;;;-7.10;88.20;;;;;;5071860;28;20041;-79
2021/12/22 04:00:59;;;;;;;31.05;15.25;;;-7.10;88.20;;;;;;5075166;28;20055;-79
2021/12/22 04:03:30;;;;;;;30.45;15.38;;;-7.10;88.10;;;;;;5076138;28;20161;-79
2021/12/22 04:05:58;;;;;;;32.45;16.13;;;-7.10;88.20;;;;;;5059434;28;20048;-79
2021/12/22 04:08:25;;;;;;;32.45;14.38;;;-7.10;88.20;;;;;;5075202;28;20083;-79
2021/12/22 04:10:52;;;;;;;32.78;15.80;;;-7.10;88.10;;;;;;5074634;28;20051;-79
2021/12/22 04:13:20;;;;;;;27.83;15.18;;;-7.10;88.10;;;;;;5074191;28;20808;-79
2021/12/22 04:15:47;;;;;;;35.30;15.43;;;-7.20;88.10;;;;;;5075148;28;20825;-79
2021/12/22 04:18:17;;;;;;;30.08;14.63;;;-7.20;88.20;;;;;;5074848;28;20048;-78
2021/12/22 04:20:43;;;;;;;32.63;14.93;;;-7.20;88.30;;;;;;5078933;28;20505;-81
2021/12/22 04:23:11;;;;;;;33.67;15.07;;;-7.20;88.30;;;;;;5074952;28;20033;-79
2021/12/22 04:25:40;;;;;;;31.23;15.70;;;-7.20;88.20;;;;;;5077460;28;20143;-78
2021/12/22 04:28:09;;;;;;;30.45;15.40;;;-7.20;88.20;;;;;;5075831;28;20509;-79
2021/12/22 04:30:42;;;;;;;29.27;14.43;;;-7.20;88.10;;;;;;5074901;28;20048;-79
2021/12/22 04:33:09;;;;;;;30.70;14.63;;;-7.20;88.10;;;;;;5075442;28;21192;-79
2021/12/22 04:35:36;;;;;;;31.77;13.82;;;-7.20;88.10;;;;;;5075497;28;20048;-78
2021/12/22 04:38:03;;;;;;;30.65;14.57;;;-7.20;88.20;;;;;;5056675;28;20128;-79
2021/12/22 04:40:30;;;;;;;29.35;15.13;;;-7.20;88.30;;;;;;5075848;28;20479;-78
2021/12/22 04:42:57;;;;;;;34.08;15.70;;;-7.20;88.30;;;;;;5074891;28;20045;-78
2021/12/22 04:45:23;;;;;;;28.02;14.38;;;-7.20;88.40;;;;;;5074975;28;20048;-78
2021/12/22 04:47:51;;;;;;;28.40;14.52;;;-7.20;88.40;;;;;;5072010;28;20397;-78
2021/12/22 04:50:20;;;;;;;27.55;13.55;;;-7.20;88.40;;;;;;5077665;28;20048;-78
2021/12/22 04:52:57;;;;;;;32.70;14.60;;;-7.30;88.60;;;;;;5076694;28;20051;-78
2021/12/22 04:55:25;;;;;;;31.98;15.38;;;-7.30;88.60;;;;;;5072455;28;20053;-78
2021/12/22 04:57:55;;;;;;;30.20;14.93;;;-7.30;88.60;;;;;;5057126;28;20049;-78
2021/12/22 05:00:24;;;;;;;28.77;14.13;;;-7.30;88.70;;;;;;5074767;28;21617;-78
2021/12/22 05:02:54;;;;;;;33.88;14.55;;;-7.30;88.50;;;;;;5074417;28;20795;-78
2021/12/22 05:05:21;;;;;;;28.95;14.85;;;-7.30;88.50;;;;;;5073935;28;20100;-78
2021/12/22 05:07:48;;;;;;;34.17;14.60;;;-7.30;88.50;;;;;;5075176;28;20049;-78
2021/12/22 05:10:16;;;;;;;32.13;13.75;;;-7.30;88.60;;;;;;5055225;28;20055;-78
2021/12/22 05:12:44;;;;;;;30.02;14.13;;;-7.30;88.60;;;;;;5076059;28;20163;-78
2021/12/22 05:15:10;;;;;;;29.58;14.70;;;-7.30;88.60;;;;;;5074798;28;20044;-79
2021/12/22 05:18:00;;;;;;;32.72;13.77;;;-7.30;88.60;;;;;;5073729;28;20049;-78
2021/12/22 05:20:26;;;;;;;28.77;14.02;;;-7.20;88.50;;;;;;5073832;28;20193;-79
2021/12/22 05:22:53;;;;;;;30.63;14.88;;;-7.30;88.40;;;;;;5053931;28;20049;-78
2021/12/22 05:25:20;;;;;;;31.35;14.75;;;-7.20;88.40;;;;;;5062853;28;20053;-78
2021/12/22 05:27:49;;;;;;;32.13;14.32;;;-7.20;88.50;;;;;;5063903;28;20059;-78
2021/12/22 05:30:16;;;;;;;29.50;14.40;;;-7.20;88.40;;;;;;5063465;28;20144;-78
2021/12/22 05:32:42;;;;;;;31.20;14.60;;;-7.20;88.40;;;;;;5064311;28;20079;-78
2021/12/22 05:35:10;;;;;;;26.73;14.48;;;-7.20;88.30;;;;;;5065165;28;20421;-78
2021/12/22 05:37:39;;;;;;;36.28;14.05;;;-7.20;88.50;;;;;;5064170;28;20440;-78
2021/12/22 05:40:07;;;;;;;33.47;14.25;;;-7.20;88.70;;;;;;5062695;28;20049;-78
2021/12/22 05:42:34;;;;;;;29.48;15.32;;;-7.20;88.80;;;;;;5063092;28;20056;-78
2021/12/22 05:45:01;;;;;;;28.17;14.15;;;-7.20;88.70;;;;;;5063105;28;20053;-78
2021/12/22 05:47:28;;;;;;;28.50;14.32;;;-7.20;89.00;;;;;;5062967;28;20053;-78
2021/12/22 05:49:55;;;;;;;30.65;14.40;;;-7.20;88.80;;;;;;5062886;28;20078;-78
2021/12/22 05:52:21;;;;;;;27.50;12.93;;;-7.20;88.60;;;;;;5064288;28;20505;-78
2021/12/22 05:54:49;;;;;;;30.58;15.15;;;-7.20;88.40;;;;;;5063262;28;20049;-78
2021/12/22 05:57:16;;;;;;;30.67;14.15;;;-7.20;88.40;;;;;;5063821;28;20049;-78
2021/12/22 05:59:42;;;;;;;33.80;14.73;;;-7.20;88.40;;;;;;5063026;28;20045;-78
2021/12/22 06:02:09;;;;;;;31.90;14.75;;;-7.20;88.40;;;;;;5063873;28;20055;-78
2021/12/22 06:04:36;;;;;;;31.60;15.23;;;-7.20;88.40;;;;;;5063720;28;20172;-78
2021/12/22 06:07:03;;;;;;;31.70;14.68;;;-7.20;88.40;;;;;;5061915;28;20049;-78
2021/12/22 06:09:29;;;;;;;34.63;15.13;;;-7.20;88.40;;;;;;5061732;28;20049;-78
2021/12/22 06:11:56;;;;;;;34.95;15.50;;;-7.20;88.40;;;;;;5062369;28;20052;-78
2021/12/22 06:14:23;;;;;;;32.53;14.65;;;-7.20;88.50;;;;;;5064614;28;20100;-78
2021/12/22 06:16:50;;;;;;;33.42;14.68;;;-7.20;88.50;;;;;;5062793;28;20500;-78
2021/12/22 06:19:18;;;;;;;31.27;14.65;;;-7.20;88.40;;;;;;5063587;28;20528;-78
2021/12/22 06:21:46;;;;;;;30.23;15.73;;;-7.20;88.50;;;;;;5061979;28;20056;-78
2021/12/22 06:24:16;;;;;;;33.03;15.15;;;-7.10;88.40;;;;;;5062161;28;20123;-78
2021/12/22 06:26:42;;;;;;;29.83;15.02;;;-7.20;88.30;;;;;;5063806;28;20045;-78
2021/12/22 06:29:09;;;;;;;33.38;14.23;;;-7.20;88.30;;;;;;5063216;28;20136;-78
2021/12/22 06:31:36;;;;;;;27.13;14.02;;;-7.20;88.40;;;;;;5063513;28;20053;-78
2021/12/22 06:34:03;;;;;;;32.17;15.05;;;-7.20;88.20;;;;;;5064978;28;20059;-78
2021/12/22 06:36:31;;;;;;;30.23;14.68;;;-7.20;88.20;;;;;;5064031;28;20068;-78
2021/12/22 06:38:58;;;;;;;27.17;13.60;;;-7.20;88.10;;;;;;5063113;28;20076;-78
2021/12/22 06:41:25;;;;;;;38.25;14.55;;;-7.20;88.10;;;;;;5062030;28;20063;-78
2021/12/22 06:43:52;;;;;;;28.70;14.15;;;-7.20;88.10;;;;;;5060456;28;20053;-78
2021/12/22 06:46:19;;;;;;;32.38;14.73;;;-7.20;88.10;;;;;;5060307;28;20111;-78
2021/12/22 06:48:47;;;;;;;34.13;15.57;;;-7.20;88.20;;;;;;5059705;28;20053;-78
2021/12/22 06:51:13;;;;;;;32.17;15.10;;;-7.20;88.20;;;;;;5061265;28;20636;-78
2021/12/22 06:53:40;;;;;;;29.05;15.23;;;-7.20;88.10;;;;;;5061553;28;20057;-78
2021/12/22 06:56:07;;;;;;;30.52;15.07;;;-7.20;88.10;;;;;;5062070;28;20049;-79
2021/12/22 06:58:37;;;;;;;31.08;14.73;;;-7.20;88.10;;;;;;5061667;28;20134;-80
2021/12/22 07:01:26;;;;;;;30.48;14.00;;;-7.20;88.10;;;;;;4989864;28;20046;-78
2021/12/22 07:03:53;;;;;;;35.15;15.30;;;-7.20;88.20;;;;;;4998865;28;20145;-78
2021/12/22 07:06:22;;;;;;;34.38;14.10;;;-7.20;88.30;;;;;;5000997;28;20060;-79
2021/12/22 07:08:48;;;;;;;32.25;15.55;;;-7.20;88.30;;;;;;5000020;28;20043;-78
2021/12/22 07:11:15;;;;;;;34.10;15.82;;;-7.20;88.20;;;;;;4999837;28;20050;-78
2021/12/22 07:13:45;;;;;;;35.67;16.05;;;-7.20;88.20;;;;;;5001605;28;20058;-78
2021/12/22 07:16:13;;;;;;;31.92;15.57;;;-7.10;88.30;;;;;;5002153;28;20058;-78
2021/12/22 07:18:41;;;;;;;31.30;15.60;;;-7.20;88.30;;;;;;4999507;28;20497;-78
2021/12/22 07:21:08;;;;;;;30.77;14.90;;;-7.20;88.30;;;;;;5063976;28;20053;-78
2021/12/22 07:23:34;;;;;;;33.65;15.18;;;-7.10;88.40;;;;;;5070530;28;20588;-79
2021/12/22 07:26:01;;;;;;;28.60;14.98;;;-7.10;88.30;;;;;;5091899;28;20833;-79
2021/12/22 07:28:28;;;;;;;30.65;14.40;;;-7.10;88.40;;;;;;5096460;28;20129;-78
2021/12/22 07:30:55;;;;;;;29.00;14.30;;;-7.10;88.40;;;;;;5079105;28;20162;-78
2021/12/22 07:33:22;;;;;;;32.83;14.95;;;-7.10;88.30;;;;;;5094960;28;20048;-77
2021/12/22 07:35:59;;;;;;;28.48;15.02;;;-7.10;88.30;;;;;;5093737;27;20493;-78
2021/12/22 07:38:34;;;;;;;31.90;14.07;;;-7.10;88.20;;;;;;5093056;28;20508;-78
2021/12/22 07:41:03;;;;;;;32.58;14.45;;;-7.10;88.20;;;;;;5093400;28;20425;-78
2021/12/22 07:43:35;;;;;;;30.80;14.98;;;-7.10;88.20;;;;;;5092379;28;21002;-78
2021/12/22 07:46:03;;;;;;;28.98;14.68;;;-7.10;88.30;;;;;;5077793;28;20079;-78
2021/12/22 07:48:30;;;;;;;30.55;15.07;;;-7.10;88.40;;;;;;5091785;28;20044;-78
2021/12/22 07:50:57;;;;;;;33.60;15.55;;;-7.00;88.40;;;;;;5093776;28;20049;-79
2021/12/22 07:53:27;;;;;;;31.50;15.20;;;-7.00;88.50;;;;;;5094365;28;20503;-78
2021/12/22 07:55:54;;;;;;;32.58;14.98;;;-7.00;88.50;;;;;;5094769;28;20053;-78
2021/12/22 07:58:25;;;;;;;30.75;15.52;;;-7.00;88.60;;;;;;5094087;28;20157;-78
2021/12/22 08:00:55;;;;;;;34.20;14.50;;;-6.90;88.60;;;;;;5091729;28;20516;-78
2021/12/22 08:03:23;;;;;;;32.17;15.45;;;-6.90;88.60;;;;;;5095229;28;20885;-79
2021/12/22 08:06:08;;;;;;;31.35;15.13;;;-6.90;88.60;;;;;;5094214;28;20060;-78
2021/12/22 08:08:35;;;;;;;35.42;16.08;;;-6.80;88.60;;;;;;5092995;28;20053;-78
2021/12/22 08:11:04;;;;;;;37.72;16.02;;;-6.80;88.70;;;;;;5096680;28;20041;-78
2021/12/22 08:13:30;;;;;;;36.83;16.08;;;-6.70;88.70;;;;;;5094865;28;20036;-78
2021/12/22 08:16:00;;;;;;;32.83;15.48;;;-6.70;88.80;;;;;;5079039;28;20362;-78
2021/12/22 08:18:30;;;;;;;35.83;15.75;;;-6.60;88.60;;;;;;5076909;28;20563;-78
2021/12/22 08:20:57;;;;;;;36.67;16.10;;;-6.50;88.60;;;;;;5095431;28;20128;-78
2021/12/22 08:23:31;;;;;;;31.08;15.27;;;-6.50;88.90;;;;;;5093272;28;20153;-78
2021/12/22 08:26:03;;;;;;;34.20;15.20;;;-6.40;88.90;;;;;;5077450;28;20044;-78
2021/12/22 08:28:30;;;;;;;34.17;15.53;;;-6.40;88.80;;;;;;5073380;28;20105;-78
2021/12/22 08:30:57;;;;;;;35.50;16.27;;;-6.30;88.80;;;;;;5076031;28;20053;-78
2021/12/22 08:33:30;;;;;;;30.80;15.90;;;-6.20;88.80;;;;;;5077309;28;20082;-78
2021/12/22 08:38:55;;;;;;;30.02;15.65;;;-6.10;88.80;;;;;;5095416;28;20055;-78
2021/12/22 08:41:40;;;;;;;38.25;15.95;;;-6.00;88.80;;;;;;5076986;28;20143;-78
2021/12/22 08:44:11;;;;;;;36.65;15.70;;;-5.90;88.70;;;;;;5093829;28;20048;-78
2021/12/22 08:46:42;;;;;;;37.47;17.20;;;-5.80;89.40;;;;;;5076410;28;20056;-78
2021/12/22 08:49:09;;;;;;;33.97;15.20;;;-5.70;90.00;;;;;;5090349;28;20057;-78
2021/12/22 08:51:37;;;;;;;37.00;16.50;;;-5.60;89.70;;;;;;5077969;28;20691;-78
2021/12/22 08:54:04;;;;;;;36.83;16.52;;;-5.50;89.50;;;;;;5095722;28;20082;-78
2021/12/22 08:56:34;;;;;;;49.03;17.08;;;-5.40;89.60;;;;;;5078007;28;20087;-78
2021/12/22 08:59:03;;;;;;;39.35;16.60;;;-5.30;90.10;;;;;;5093807;28;20057;-78
2021/12/22 09:01:33;;;;;;;40.90;16.90;;;-5.20;90.20;;;;;;5099730;28;20051;-78
2021/12/22 09:04:00;;;;;;;40.25;16.65;;;-5.10;90.70;;;;;;5092924;28;20053;-79
2021/12/22 09:06:30;;;;;;;36.50;16.40;;;-4.90;91.00;;;;;;5097638;28;20811;-79
2021/12/22 09:08:58;;;;;;;41.60;18.00;;;-4.80;91.20;;;;;;5095284;28;20043;-78
2021/12/22 09:11:30;;;;;;;43.00;17.88;;;-4.70;91.20;;;;;;5097567;28;20072;-79
2021/12/22 09:14:11;;;;;;;37.72;16.85;;;-4.60;91.20;;;;;;5023029;28;20192;-79
2021/12/22 09:16:48;;;;;;;39.65;17.63;;;-4.40;91.50;;;;;;5031817;28;20139;-79
2021/12/22 09:19:30;;;;;;;40.42;17.90;;;-4.20;91.70;;;;;;5035236;28;20042;-79
2021/12/22 09:21:57;;;;;;;45.13;18.15;;;-4.10;91.60;;;;;;5035578;28;20112;-79
2021/12/22 09:24:27;;;;;;;36.85;16.98;;;-4.00;91.70;;;;;;5035881;28;20094;-79
2021/12/22 09:26:57;;;;;;;39.70;17.08;;;-3.90;91.70;;;;;;5055773;28;20045;-79
2021/12/22 09:29:29;;;;;;;35.60;16.48;;;-3.70;91.50;;;;;;5038463;28;20050;-79
2021/12/22 09:32:02;;;;;;;35.28;16.05;;;-3.60;91.40;;;;;;5041571;28;20038;-79
2021/12/22 09:34:32;;;;;;;39.33;17.52;;;-3.40;91.10;;;;;;5041718;28;20939;-80
2021/12/22 09:37:03;;;;;;;36.08;16.05;;;-3.30;90.90;;;;;;5041496;28;20077;-79
2021/12/22 09:39:50;;;;;;;37.30;16.77;;;-3.10;90.80;;;;;;5043375;28;20054;-79
2021/12/22 09:42:22;;;;;;;36.08;14.98;;;-2.90;90.20;;;;;;5045441;28;20053;-79
2021/12/22 09:44:50;;;;;;;34.13;14.73;;;-2.80;90.20;;;;;;5046776;28;20040;-80
2021/12/22 09:47:27;;;;;;;37.75;14.82;;;-2.70;89.70;;;;;;5045675;28;20585;-80
2021/12/22 09:50:07;;;;;;;28.52;13.95;;;-2.60;89.30;;;;;;5044570;28;20081;-79
2021/12/22 09:52:36;;;;;;;26.90;14.38;;;-2.50;89.00;;;;;;5048610;28;20049;-79
2021/12/22 09:55:08;;;;;;;36.17;14.80;;;-2.50;88.90;;;;;;5045752;28;20070;-80
2021/12/22 09:57:35;;;;;;;31.50;14.15;;;-2.50;88.90;;;;;;5064266;28;20054;-80
2021/12/22 10:00:06;;;;;;;30.40;14.52;;;-2.50;89.10;;;;;;5048864;28;20895;-80
2021/12/22 10:02:42;;;;;;;42.17;15.25;;;-2.40;89.00;;;;;;5049350;28;20046;-80
2021/12/22 10:05:17;;;;;;;33.63;13.95;;;-2.40;88.90;;;;;;5048209;28;20045;-80
2021/12/22 10:08:44;;;;;;;36.22;14.07;;;-2.40;89.10;;;;;;5047858;28;20061;-81
2021/12/22 10:11:28;;;;;;;30.13;14.52;;;-2.40;88.70;;;;;;5047835;28;20056;-80
2021/12/22 10:13:55;;;;;;;31.25;14.60;;;-2.40;89.00;;;;;;5042912;28;20059;-81
2021/12/22 10:16:25;;;;;;;29.50;14.45;;;-2.40;88.80;;;;;;5076712;28;20061;-81
2021/12/22 10:19:04;;;;;;;27.38;14.13;;;-2.40;89.20;;;;;;5044679;28;20042;-80
2021/12/22 10:21:34;;;;;;;31.35;14.77;;;-2.30;89.10;;;;;;5051382;28;20049;-80
2021/12/22 10:24:14;;;;;;;34.55;14.85;;;-2.30;89.00;;;;;;5053645;28;20042;-80
2021/12/22 10:26:43;;;;;;;30.90;14.63;;;-2.10;89.40;;;;;;5045644;28;20049;-80
2021/12/22 10:29:11;;;;;;;28.63;14.15;;;-2.00;89.20;;;;;;5061886;28;20061;-80
2021/12/22 10:31:42;;;;;;;27.17;12.88;;;-1.90;88.80;;;;;;5059017;28;20030;-80
2021/12/22 10:34:14;;;;;;;32.97;13.63;;;-1.80;88.70;;;;;;5059065;28;20033;-80
2021/12/22 10:36:55;;;;;;;29.45;14.00;;;-1.70;88.50;;;;;;5058828;28;20060;-80
2021/12/22 10:39:28;;;;;;;32.95;14.27;;;-1.70;88.30;;;;;;5044751;28;20945;-80
2021/12/22 10:42:39;;;;;;;29.08;14.55;;;-1.70;88.30;;;;;;5058621;28;20026;-80
2021/12/22 10:45:13;;;;;;;28.55;14.30;;;-1.60;88.00;;;;;;5052101;28;20117;-80
2021/12/22 10:50:56;;;;;;;30.83;12.38;;;-1.50;87.10;;;;;;5060953;28;20109;-80
2021/12/22 10:53:25;;;;;;;26.33;13.33;;;-1.40;86.40;;;;;;5060876;28;20061;-80
2021/12/22 10:55:57;;;;;;;26.38;13.77;;;-1.30;87.10;;;;;;5058515;28;20057;-80
2021/12/22 10:58:35;;;;;;;23.58;12.50;;;-1.30;86.70;;;;;;5058561;28;20049;-79
2021/12/22 11:01:11;;;;;;;25.15;13.38;;;-1.30;86.00;;;;;;5058751;28;20068;-80
2021/12/22 11:03:53;;;;;;;24.90;14.15;;;-1.20;86.90;;;;;;5061483;28;20053;-80
2021/12/22 11:06:39;;;;;;;28.05;12.32;;;-0.90;87.40;;;;;;5063577;28;20048;-79
2021/12/22 11:09:16;;;;;;;26.20;12.60;;;-0.90;85.80;;;;;;5050059;28;20072;-80
2021/12/22 11:11:52;;;;;;;21.13;12.33;;;-0.90;85.20;;;;;;5068070;28;20049;-80
2021/12/22 11:14:26;;;;;;;24.80;12.07;;;-0.70;86.60;;;;;;5068703;28;20045;-80
2021/12/22 11:17:19;;;;;;;23.40;12.20;;;-0.50;85.90;;;;;;5067845;28;20042;-80
2021/12/22 11:19:57;;;;;;;25.70;12.32;;;-0.40;85.60;;;;;;5065545;28;20050;-79
2021/12/22 11:23:00;;;;;;;27.02;11.88;;;-0.40;83.90;;;;;;5063257;28;20090;-79
2021/12/22 11:25:30;;;;;;;24.35;11.30;;;-0.30;84.30;;;;;;5052271;28;20502;-80
2021/12/22 11:27:58;;;;;;;22.98;11.50;;;-0.30;83.60;;;;;;5062297;28;20820;-80
2021/12/22 11:30:38;;;;;;;22.30;11.68;;;-0.40;83.30;;;;;;5051661;28;20050;-80
2021/12/22 11:33:05;;;;;;;24.08;12.05;;;-0.30;85.10;;;;;;5082238;28;20963;-80
2021/12/22 11:35:40;;;;;;;25.45;11.82;;;-0.30;84.20;;;;;;5052257;28;20995;-81
2021/12/22 11:38:17;;;;;;;23.05;10.60;;;-0.30;85.00;;;;;;5060776;28;20151;-81
2021/12/22 11:40:53;;;;;;;22.95;12.05;;;-0.30;83.30;;;;;;5053261;28;20068;-80
2021/12/22 11:43:45;;;;;;;26.95;11.38;;;-0.20;85.10;;;;;;5047155;28;20161;-79
2021/12/22 11:46:36;;;;;;;25.08;12.27;;;-0.20;84.20;;;;;;5046830;28;20934;-79
2021/12/22 11:49:05;;;;;;;21.33;11.25;;;-0.20;84.50;;;;;;5004292;28;20092;-80
2021/12/22 11:51:34;;;;;;;22.50;11.55;;;-0.20;84.70;;;;;;5060262;28;20975;-79
2021/12/22 11:54:09;;;;;;;22.60;11.43;;;-0.20;84.50;;;;;;5052398;28;20045;-80
2021/12/22 11:56:48;;;;;;;24.02;11.55;;;-0.20;84.60;;;;;;5050976;28;20136;-80
2021/12/22 12:00:16;;;;;;;;;;;;;;;;;;;;;
2021/12/22 12:02:49;;;;;;;22.58;11.25;;;-0.20;84.90;;;;;;5061516;28;20966;-80
2021/12/22 12:05:23;;;;;;;22.60;11.15;;;-0.20;84.90;;;;;;5065020;28;20156;-79
2021/12/22 12:08:03;;;;;;;19.73;11.38;;;-0.20;84.40;;;;;;5065205;28;20120;-79
2021/12/22 12:10:33;;;;;;;21.58;11.43;;;-0.20;85.40;;;;;;5053876;28;20029;-80
2021/12/22 12:13:36;;;;;;;23.80;12.25;;;-0.20;84.50;;;;;;5054087;28;20095;-80
2021/12/22 12:22:43;;;;;;;20.55;10.80;;;-0.20;83.90;;;;;;5062409;28;20129;-79
2021/12/22 12:25:33;;;;;;;20.92;10.70;;;-0.20;83.80;;;;;;5034552;28;20041;-80
2021/12/22 12:28:17;;;;;;;20.97;10.90;;;-0.20;83.60;;;;;;5054197;28;20060;-80
2021/12/22 12:31:01;;;;;;;20.98;11.10;;;-0.20;84.00;;;;;;5063214;28;20038;-79
2021/12/22 12:33:33;;;;;;;24.80;11.68;;;-0.20;84.00;;;;;;5068849;28;20140;-79
2021/12/22 12:36:03;;;;;;;20.63;11.23;;;-0.20;84.10;;;;;;5048506;28;20065;-80
2021/12/22 12:38:49;;;;;;;24.50;11.18;;;-0.20;84.80;;;;;;5061435;28;20053;-80
2021/12/22 12:41:19;;;;;;;26.60;12.13;;;-0.10;84.00;;;;;;5043310;28;20402;-80
2021/12/22 12:43:52;;;;;;;21.50;10.90;;;-0.10;84.00;;;;;;5062670;28;20089;-80
2021/12/22 12:46:35;;;;;;;22.30;10.73;;;0.00;84.80;;;;;;5057889;28;22035;-80
2021/12/22 12:49:16;;;;;;;21.67;11.57;;;0.00;83.90;;;;;;5054970;28;20084;-80
2021/12/22 12:51:47;;;;;;;19.95;10.68;;;0.10;84.70;;;;;;5056155;28;20103;-80
2021/12/22 12:54:17;;;;;;;23.42;11.38;;;0.00;83.30;;;;;;5042159;28;20040;-80
2021/12/22 12:56:57;;;;;;;18.83;9.90;;;0.00;84.00;;;;;;5040897;28;20069;-80
2021/12/22 12:59:38;;;;;;;19.85;10.60;;;0.10;83.70;;;;;;5053691;28;20049;-80
2021/12/22 13:02:08;;;;;;;22.38;10.88;;;0.00;83.30;;;;;;5052852;28;20080;-80
2021/12/22 13:04:40;;;;;;;19.60;10.70;;;0.10;84.40;;;;;;5041682;28;20073;-80
2021/12/22 13:07:19;;;;;;;21.95;10.35;;;0.20;84.40;;;;;;5039545;28;20115;-80
2021/12/22 13:10:11;;;;;;;23.50;10.57;;;0.30;84.50;;;;;;5040984;28;20283;-80
2021/12/22 13:13:12;;;;;;;23.23;11.20;;;0.30;83.70;;;;;;5055736;28;20048;-80
2021/12/22 13:16:33;;;;;;;;;;;;;;;;;;;;;
2021/12/22 13:19:07;;;;;;;24.05;10.75;;;0.20;82.40;;;;;;5039561;28;20058;-80
2021/12/22 13:21:41;;;;;;;18.40;10.18;;;0.20;83.50;;;;;;5056740;28;20046;-80
2021/12/22 13:24:21;;;;;;;19.92;10.32;;;0.20;83.60;;;;;;5054114;28;20052;-80